sensor_id;sensor_type;location;lat;lon;timestamp;P1;durP1;ratioP1;P2;durP2;ratioP2
27957;SDS011;15295;42.658;23.374;2023-10-09T00:00:14;12.48;;;2.95;;
27957;SDS011;15295;42.658;23.374;2023-10-09T00:02:59;9.68;;;2.92;;
27957;SDS011;15295;42.658;23.374;2023-10-09T00:05:26;12.32;;;2.88;;
27957;SDS011;15295;42.658;23.374;2023-10-09T00:10:47;11.65;;;2.80;;
27957;SDS011;15295;42.658;23.374;2023-10-09T00:13:28;10.63;;;2.47;;
27957;SDS011;15295;42.658;23.374;2023-10-09T00:15:56;10.80;;;3.00;;
27957;SDS011;15295;42.658;23.374;2023-10-09T00:21:01;10.38;;;2.75;;
27957;SDS011;15295;42.658;23.374;2023-10-09T00:23:37;6.80;;;2.40;;
27957;SDS011;15295;42.658;23.374;2023-10-09T00:26:03;11.65;;;2.50;;
27957;SDS011;15295;42.658;23.374;2023-10-09T00:28:41;11.88;;;2.53;;
27957;SDS011;15295;42.658;23.374;2023-10-09T00:31:09;6.72;;;2.55;;
27957;SDS011;15295;42.658;23.374;2023-10-09T00:38:51;7.03;;;2.22;;
27957;SDS011;15295;42.658;23.374;2023-10-09T00:41:17;9.00;;;2.50;;
27957;SDS011;15295;42.658;23.374;2023-10-09T00:43:47;7.13;;;2.50;;
27957;SDS011;15295;42.658;23.374;2023-10-09T00:51:26;6.15;;;2.20;;
27957;SDS011;15295;42.658;23.374;2023-10-09T00:53:52;10.45;;;2.53;;
27957;SDS011;15295;42.658;23.374;2023-10-09T01:01:43;7.13;;;2.10;;
27957;SDS011;15295;42.658;23.374;2023-10-09T01:04:21;7.88;;;2.13;;
27957;SDS011;15295;42.658;23.374;2023-10-09T01:20:13;6.07;;;2.00;;
27957;SDS011;15295;42.658;23.374;2023-10-09T01:25:16;5.30;;;1.92;;
27957;SDS011;15295;42.658;23.374;2023-10-09T01:33:12;6.85;;;1.77;;
27957;SDS011;15295;42.658;23.374;2023-10-09T01:43:32;8.10;;;2.20;;
27957;SDS011;15295;42.658;23.374;2023-10-09T01:45:59;8.65;;;3.05;;
27957;SDS011;15295;42.658;23.374;2023-10-09T01:56:11;3.90;;;1.77;;
27957;SDS011;15295;42.658;23.374;2023-10-09T02:06:21;8.10;;;1.90;;
27957;SDS011;15295;42.658;23.374;2023-10-09T02:09:02;4.88;;;1.77;;
27957;SDS011;15295;42.658;23.374;2023-10-09T02:14:07;7.65;;;2.10;;
27957;SDS011;15295;42.658;23.374;2023-10-09T02:16:48;6.28;;;1.73;;
27957;SDS011;15295;42.658;23.374;2023-10-09T02:22:42;8.40;;;2.03;;
27957;SDS011;15295;42.658;23.374;2023-10-09T02:25:08;8.45;;;1.77;;
27957;SDS011;15295;42.658;23.374;2023-10-09T02:33:00;5.28;;;1.83;;
27957;SDS011;15295;42.658;23.374;2023-10-09T02:35:33;14.95;;;2.05;;
27957;SDS011;15295;42.658;23.374;2023-10-09T02:48:28;8.35;;;2.10;;
27957;SDS011;15295;42.658;23.374;2023-10-09T02:51:13;8.45;;;2.10;;
27957;SDS011;15295;42.658;23.374;2023-10-09T02:54:03;14.10;;;2.15;;
27957;SDS011;15295;42.658;23.374;2023-10-09T02:56:52;6.82;;;1.70;;
27957;SDS011;15295;42.658;23.374;2023-10-09T03:02:08;9.13;;;2.10;;
27957;SDS011;15295;42.658;23.374;2023-10-09T03:04:36;5.95;;;1.70;;
27957;SDS011;15295;42.658;23.374;2023-10-09T03:12:26;3.40;;;1.58;;
27957;SDS011;15295;42.658;23.374;2023-10-09T03:27:48;7.13;;;1.85;;
27957;SDS011;15295;42.658;23.374;2023-10-09T03:32:51;3.45;;;1.55;;
27957;SDS011;15295;42.658;23.374;2023-10-09T03:40:34;4.90;;;1.73;;
27957;SDS011;15295;42.658;23.374;2023-10-09T03:43:04;7.32;;;1.30;;
27957;SDS011;15295;42.658;23.374;2023-10-09T03:45:33;7.68;;;1.25;;
27957;SDS011;15295;42.658;23.374;2023-10-09T03:48:00;6.35;;;1.50;;
27957;SDS011;15295;42.658;23.374;2023-10-09T03:50:41;3.90;;;1.55;;
27957;SDS011;15295;42.658;23.374;2023-10-09T03:59:40;3.63;;;1.20;;
27957;SDS011;15295;42.658;23.374;2023-10-09T04:02:21;5.90;;;1.50;;
27957;SDS011;15295;42.658;23.374;2023-10-09T04:04:48;8.63;;;1.42;;
27957;SDS011;15295;42.658;23.374;2023-10-09T04:07:15;2.38;;;1.08;;
27957;SDS011;15295;42.658;23.374;2023-10-09T04:12:16;1.85;;;0.98;;
27957;SDS011;15295;42.658;23.374;2023-10-09T04:14:46;5.47;;;1.90;;
27957;SDS011;15295;42.658;23.374;2023-10-09T04:17:22;5.60;;;2.25;;
27957;SDS011;15295;42.658;23.374;2023-10-09T04:22:16;6.05;;;1.30;;
27957;SDS011;15295;42.658;23.374;2023-10-09T04:24:52;12.25;;;1.83;;
27957;SDS011;15295;42.658;23.374;2023-10-09T04:29:53;6.90;;;2.00;;
27957;SDS011;15295;42.658;23.374;2023-10-09T04:34:54;5.60;;;1.40;;
27957;SDS011;15295;42.658;23.374;2023-10-09T04:37:43;2.42;;;1.35;;
27957;SDS011;15295;42.658;23.374;2023-10-09T04:42:35;3.80;;;1.65;;
27957;SDS011;15295;42.658;23.374;2023-10-09T04:45:06;3.78;;;1.40;;
27957;SDS011;15295;42.658;23.374;2023-10-09T04:47:33;2.20;;;1.10;;
27957;SDS011;15295;42.658;23.374;2023-10-09T04:52:58;2.70;;;1.35;;
27957;SDS011;15295;42.658;23.374;2023-10-09T04:55:44;2.95;;;1.00;;
27957;SDS011;15295;42.658;23.374;2023-10-09T04:58:22;3.83;;;1.38;;
27957;SDS011;15295;42.658;23.374;2023-10-09T05:00:53;11.05;;;1.50;;
27957;SDS011;15295;42.658;23.374;2023-10-09T05:03:59;6.90;;;2.40;;
27957;SDS011;15295;42.658;23.374;2023-10-09T05:06:29;7.20;;;1.98;;
27957;SDS011;15295;42.658;23.374;2023-10-09T05:09:13;7.05;;;1.65;;
27957;SDS011;15295;42.658;23.374;2023-10-09T05:11:40;3.03;;;1.38;;
27957;SDS011;15295;42.658;23.374;2023-10-09T05:24:38;8.05;;;1.40;;
27957;SDS011;15295;42.658;23.374;2023-10-09T05:27:12;5.70;;;1.77;;
27957;SDS011;15295;42.658;23.374;2023-10-09T05:29:43;3.97;;;1.27;;
27957;SDS011;15295;42.658;23.374;2023-10-09T05:37:27;3.22;;;1.45;;
27957;SDS011;15295;42.658;23.374;2023-10-09T05:40:08;7.60;;;1.77;;
27957;SDS011;15295;42.658;23.374;2023-10-09T05:53:22;3.33;;;1.45;;
27957;SDS011;15295;42.658;23.374;2023-10-09T05:56:00;4.35;;;1.23;;
27957;SDS011;15295;42.658;23.374;2023-10-09T06:06:20;5.57;;;1.38;;
27957;SDS011;15295;42.658;23.374;2023-10-09T06:11:33;5.47;;;1.52;;
27957;SDS011;15295;42.658;23.374;2023-10-09T06:13:59;2.78;;;1.35;;
27957;SDS011;15295;42.658;23.374;2023-10-09T06:16:35;4.13;;;1.80;;
27957;SDS011;15295;42.658;23.374;2023-10-09T06:19:09;5.07;;;2.25;;
27957;SDS011;15295;42.658;23.374;2023-10-09T06:39:19;5.88;;;1.83;;
27957;SDS011;15295;42.658;23.374;2023-10-09T06:42:03;5.45;;;1.75;;
27957;SDS011;15295;42.658;23.374;2023-10-09T06:44:55;4.63;;;2.20;;
27957;SDS011;15295;42.658;23.374;2023-10-09T06:47:20;7.15;;;4.25;;
27957;SDS011;15295;42.658;23.374;2023-10-09T06:49:49;5.82;;;3.10;;
27957;SDS011;15295;42.658;23.374;2023-10-09T06:52:34;3.08;;;1.42;;
27957;SDS011;15295;42.658;23.374;2023-10-09T06:55:18;4.18;;;1.40;;
27957;SDS011;15295;42.658;23.374;2023-10-09T06:57:57;6.25;;;1.55;;
27957;SDS011;15295;42.658;23.374;2023-10-09T07:00:27;3.25;;;1.55;;
27957;SDS011;15295;42.658;23.374;2023-10-09T07:03:17;7.70;;;2.35;;
27957;SDS011;15295;42.658;23.374;2023-10-09T07:05:44;2.28;;;1.48;;
27957;SDS011;15295;42.658;23.374;2023-10-09T07:08:29;3.60;;;2.22;;
27957;SDS011;15295;42.658;23.374;2023-10-09T07:10:58;5.70;;;3.80;;
27957;SDS011;15295;42.658;23.374;2023-10-09T07:17:05;3.40;;;1.60;;
27957;SDS011;15295;42.658;23.374;2023-10-09T07:22:16;17.23;;;9.18;;
27957;SDS011;15295;42.658;23.374;2023-10-09T07:24:46;4.45;;;2.22;;
27957;SDS011;15295;42.658;23.374;2023-10-09T07:32:32;5.70;;;2.75;;
27957;SDS011;15295;42.658;23.374;2023-10-09T07:34:59;6.22;;;3.80;;
27957;SDS011;15295;42.658;23.374;2023-10-09T07:42:48;3.70;;;1.80;;
27957;SDS011;15295;42.658;23.374;2023-10-09T07:45:17;2.50;;;1.90;;
27957;SDS011;15295;42.658;23.374;2023-10-09T07:47:46;7.07;;;4.20;;
27957;SDS011;15295;42.658;23.374;2023-10-09T07:50:24;5.97;;;3.47;;
27957;SDS011;15295;42.658;23.374;2023-10-09T07:52:55;4.50;;;1.50;;
27957;SDS011;15295;42.658;23.374;2023-10-09T07:55:51;3.50;;;2.00;;
27957;SDS011;15295;42.658;23.374;2023-10-09T07:58:24;4.28;;;1.65;;
27957;SDS011;15295;42.658;23.374;2023-10-09T08:00:56;3.22;;;1.45;;
27957;SDS011;15295;42.658;23.374;2023-10-09T08:03:35;3.28;;;1.70;;
27957;SDS011;15295;42.658;23.374;2023-10-09T08:06:02;2.15;;;1.40;;
27957;SDS011;15295;42.658;23.374;2023-10-09T08:11:21;3.20;;;1.70;;
27957;SDS011;15295;42.658;23.374;2023-10-09T08:14:05;1.55;;;1.15;;
27957;SDS011;15295;42.658;23.374;2023-10-09T08:24:53;5.65;;;1.60;;
27957;SDS011;15295;42.658;23.374;2023-10-09T08:30:12;5.43;;;2.30;;
27957;SDS011;15295;42.658;23.374;2023-10-09T08:35:10;2.65;;;1.20;;
27957;SDS011;15295;42.658;23.374;2023-10-09T08:48:58;3.35;;;2.50;;
27957;SDS011;15295;42.658;23.374;2023-10-09T08:51:25;5.43;;;2.22;;
27957;SDS011;15295;42.658;23.374;2023-10-09T08:59:02;3.58;;;2.45;;
27957;SDS011;15295;42.658;23.374;2023-10-09T09:01:29;6.57;;;2.60;;
27957;SDS011;15295;42.658;23.374;2023-10-09T09:06:41;6.30;;;1.70;;
27957;SDS011;15295;42.658;23.374;2023-10-09T09:09:10;6.25;;;2.20;;
27957;SDS011;15295;42.658;23.374;2023-10-09T09:11:40;3.15;;;1.50;;
27957;SDS011;15295;42.658;23.374;2023-10-09T09:14:13;4.43;;;1.50;;
27957;SDS011;15295;42.658;23.374;2023-10-09T09:16:57;3.53;;;1.45;;
27957;SDS011;15295;42.658;23.374;2023-10-09T09:19:30;5.80;;;3.20;;
27957;SDS011;15295;42.658;23.374;2023-10-09T09:21:57;4.38;;;2.30;;
27957;SDS011;15295;42.658;23.374;2023-10-09T09:24:38;5.80;;;3.92;;
27957;SDS011;15295;42.658;23.374;2023-10-09T09:27:10;3.55;;;1.83;;
27957;SDS011;15295;42.658;23.374;2023-10-09T09:29:56;14.07;;;11.70;;
27957;SDS011;15295;42.658;23.374;2023-10-09T09:32:28;6.18;;;3.13;;
27957;SDS011;15295;42.658;23.374;2023-10-09T09:37:35;7.45;;;2.50;;
27957;SDS011;15295;42.658;23.374;2023-10-09T09:40:07;3.97;;;1.90;;
27957;SDS011;15295;42.658;23.374;2023-10-09T09:42:59;4.20;;;1.75;;
27957;SDS011;15295;42.658;23.374;2023-10-09T09:50:45;4.88;;;2.10;;
27957;SDS011;15295;42.658;23.374;2023-10-09T09:53:18;6.53;;;2.30;;
27957;SDS011;15295;42.658;23.374;2023-10-09T09:55:56;4.50;;;2.50;;
27957;SDS011;15295;42.658;23.374;2023-10-09T09:58:25;3.63;;;1.90;;
27957;SDS011;15295;42.658;23.374;2023-10-09T10:01:03;8.30;;;2.10;;
27957;SDS011;15295;42.658;23.374;2023-10-09T10:03:50;4.45;;;2.65;;
27957;SDS011;15295;42.658;23.374;2023-10-09T10:18:59;5.97;;;2.58;;
27957;SDS011;15295;42.658;23.374;2023-10-09T10:21:52;5.65;;;2.13;;
27957;SDS011;15295;42.658;23.374;2023-10-09T10:35:38;4.20;;;2.30;;
27957;SDS011;15295;42.658;23.374;2023-10-09T10:41:10;4.35;;;2.05;;
27957;SDS011;15295;42.658;23.374;2023-10-09T10:43:47;5.20;;;1.50;;
27957;SDS011;15295;42.658;23.374;2023-10-09T10:46:23;5.72;;;2.00;;
27957;SDS011;15295;42.658;23.374;2023-10-09T10:48:54;7.65;;;2.50;;
27957;SDS011;15295;42.658;23.374;2023-10-09T10:51:38;5.15;;;2.25;;
27957;SDS011;15295;42.658;23.374;2023-10-09T10:54:04;2.15;;;1.50;;
27957;SDS011;15295;42.658;23.374;2023-10-09T10:57:03;4.05;;;1.77;;
27957;SDS011;15295;42.658;23.374;2023-10-09T10:59:44;5.65;;;2.10;;
27957;SDS011;15295;42.658;23.374;2023-10-09T11:02:11;3.50;;;2.30;;
27957;SDS011;15295;42.658;23.374;2023-10-09T11:04:37;4.15;;;2.10;;
27957;SDS011;15295;42.658;23.374;2023-10-09T11:07:11;5.75;;;2.33;;
27957;SDS011;15295;42.658;23.374;2023-10-09T11:09:44;4.35;;;2.63;;
27957;SDS011;15295;42.658;23.374;2023-10-09T11:12:54;4.32;;;2.45;;
27957;SDS011;15295;42.658;23.374;2023-10-09T11:15:32;5.00;;;2.00;;
27957;SDS011;15295;42.658;23.374;2023-10-09T11:18:15;2.83;;;1.90;;
27957;SDS011;15295;42.658;23.374;2023-10-09T11:20:53;5.90;;;3.20;;
27957;SDS011;15295;42.658;23.374;2023-10-09T11:23:30;6.05;;;3.97;;
27957;SDS011;15295;42.658;23.374;2023-10-09T11:26:16;4.85;;;2.20;;
27957;SDS011;15295;42.658;23.374;2023-10-09T11:34:45;4.57;;;2.80;;
27957;SDS011;15295;42.658;23.374;2023-10-09T11:37:22;6.07;;;3.90;;
27957;SDS011;15295;42.658;23.374;2023-10-09T11:40:07;8.60;;;3.65;;
27957;SDS011;15295;42.658;23.374;2023-10-09T11:43:24;7.32;;;4.65;;
27957;SDS011;15295;42.658;23.374;2023-10-09T11:46:10;9.43;;;4.65;;
27957;SDS011;15295;42.658;23.374;2023-10-09T11:54:08;3.83;;;2.50;;
27957;SDS011;15295;42.658;23.374;2023-10-09T11:56:34;7.25;;;2.72;;
27957;SDS011;15295;42.658;23.374;2023-10-09T12:01:38;5.13;;;2.67;;
27957;SDS011;15295;42.658;23.374;2023-10-09T12:04:07;4.32;;;2.83;;
27957;SDS011;15295;42.658;23.374;2023-10-09T12:06:34;8.13;;;3.45;;
27957;SDS011;15295;42.658;23.374;2023-10-09T12:21:52;5.65;;;3.50;;
27957;SDS011;15295;42.658;23.374;2023-10-09T12:26:56;5.72;;;2.22;;
27957;SDS011;15295;42.658;23.374;2023-10-09T12:29:22;4.22;;;2.40;;
27957;SDS011;15295;42.658;23.374;2023-10-09T12:31:49;5.57;;;2.10;;
27957;SDS011;15295;42.658;23.374;2023-10-09T12:34:23;4.60;;;2.47;;
27957;SDS011;15295;42.658;23.374;2023-10-09T12:36:56;4.82;;;2.15;;
27957;SDS011;15295;42.658;23.374;2023-10-09T12:42:01;4.18;;;1.88;;
27957;SDS011;15295;42.658;23.374;2023-10-09T12:44:33;6.65;;;3.17;;
27957;SDS011;15295;42.658;23.374;2023-10-09T12:49:41;4.80;;;2.13;;
27957;SDS011;15295;42.658;23.374;2023-10-09T12:52:09;5.93;;;2.55;;
27957;SDS011;15295;42.658;23.374;2023-10-09T12:54:42;4.20;;;1.70;;
27957;SDS011;15295;42.658;23.374;2023-10-09T12:57:12;3.35;;;2.42;;
27957;SDS011;15295;42.658;23.374;2023-10-09T13:00:03;2.97;;;2.20;;
27957;SDS011;15295;42.658;23.374;2023-10-09T13:02:36;6.65;;;4.03;;
27957;SDS011;15295;42.658;23.374;2023-10-09T13:05:01;5.45;;;2.20;;
27957;SDS011;15295;42.658;23.374;2023-10-09T13:07:32;6.07;;;3.08;;
27957;SDS011;15295;42.658;23.374;2023-10-09T13:10:11;5.60;;;2.15;;
27957;SDS011;15295;42.658;23.374;2023-10-09T13:12:39;4.93;;;1.58;;
27957;SDS011;15295;42.658;23.374;2023-10-09T13:15:08;6.93;;;2.72;;
27957;SDS011;15295;42.658;23.374;2023-10-09T13:17:34;24.63;;;19.17;;
27957;SDS011;15295;42.658;23.374;2023-10-09T13:20:05;4.10;;;2.85;;
27957;SDS011;15295;42.658;23.374;2023-10-09T13:22:44;5.78;;;3.08;;
27957;SDS011;15295;42.658;23.374;2023-10-09T13:25:16;10.07;;;4.38;;
27957;SDS011;15295;42.658;23.374;2023-10-09T13:28:04;5.00;;;3.28;;
27957;SDS011;15295;42.658;23.374;2023-10-09T13:30:31;4.45;;;3.03;;
27957;SDS011;15295;42.658;23.374;2023-10-09T13:33:04;4.32;;;1.50;;
27957;SDS011;15295;42.658;23.374;2023-10-09T13:35:35;4.00;;;1.83;;
27957;SDS011;15295;42.658;23.374;2023-10-09T13:38:16;4.07;;;2.20;;
27957;SDS011;15295;42.658;23.374;2023-10-09T13:40:56;5.03;;;2.53;;
27957;SDS011;15295;42.658;23.374;2023-10-09T13:43:26;6.43;;;2.33;;
27957;SDS011;15295;42.658;23.374;2023-10-09T13:45:54;8.73;;;2.22;;
27957;SDS011;15295;42.658;23.374;2023-10-09T13:48:22;6.78;;;2.30;;
27957;SDS011;15295;42.658;23.374;2023-10-09T13:50:50;4.13;;;2.13;;
27957;SDS011;15295;42.658;23.374;2023-10-09T13:53:22;5.78;;;2.38;;
27957;SDS011;15295;42.658;23.374;2023-10-09T14:01:02;7.05;;;2.20;;
27957;SDS011;15295;42.658;23.374;2023-10-09T14:03:33;4.18;;;1.90;;
27957;SDS011;15295;42.658;23.374;2023-10-09T14:05:59;2.72;;;1.55;;
27957;SDS011;15295;42.658;23.374;2023-10-09T14:08:36;5.53;;;2.15;;
27957;SDS011;15295;42.658;23.374;2023-10-09T14:11:12;5.70;;;2.90;;
27957;SDS011;15295;42.658;23.374;2023-10-09T14:13:41;3.75;;;1.90;;
27957;SDS011;15295;42.658;23.374;2023-10-09T14:16:07;5.43;;;3.03;;
27957;SDS011;15295;42.658;23.374;2023-10-09T14:21:27;3.40;;;2.53;;
27957;SDS011;15295;42.658;23.374;2023-10-09T14:24:03;4.22;;;1.98;;
27957;SDS011;15295;42.658;23.374;2023-10-09T14:26:40;8.18;;;3.33;;
27957;SDS011;15295;42.658;23.374;2023-10-09T14:29:06;8.23;;;3.13;;
27957;SDS011;15295;42.658;23.374;2023-10-09T14:34:07;8.35;;;3.25;;
27957;SDS011;15295;42.658;23.374;2023-10-09T14:36:34;14.55;;;6.65;;
27957;SDS011;15295;42.658;23.374;2023-10-09T14:39:00;20.40;;;14.68;;
27957;SDS011;15295;42.658;23.374;2023-10-09T14:41:36;20.75;;;16.33;;
27957;SDS011;15295;42.658;23.374;2023-10-09T14:44:01;25.48;;;13.65;;
27957;SDS011;15295;42.658;23.374;2023-10-09T14:46:26;10.52;;;5.85;;
27957;SDS011;15295;42.658;23.374;2023-10-09T14:48:53;8.07;;;4.55;;
27957;SDS011;15295;42.658;23.374;2023-10-09T14:51:25;6.88;;;3.22;;
27957;SDS011;15295;42.658;23.374;2023-10-09T14:53:55;10.00;;;3.63;;
27957;SDS011;15295;42.658;23.374;2023-10-09T14:56:28;9.38;;;3.35;;
27957;SDS011;15295;42.658;23.374;2023-10-09T14:58:57;12.15;;;5.35;;
27957;SDS011;15295;42.658;23.374;2023-10-09T15:04:04;12.52;;;4.18;;
27957;SDS011;15295;42.658;23.374;2023-10-09T15:06:29;10.13;;;3.33;;
27957;SDS011;15295;42.658;23.374;2023-10-09T15:09:04;8.98;;;4.30;;
27957;SDS011;15295;42.658;23.374;2023-10-09T15:12:00;10.23;;;4.85;;
27957;SDS011;15295;42.658;23.374;2023-10-09T15:14:32;7.63;;;3.65;;
27957;SDS011;15295;42.658;23.374;2023-10-09T15:16:58;10.30;;;4.70;;
27957;SDS011;15295;42.658;23.374;2023-10-09T15:21:59;10.73;;;4.28;;
27957;SDS011;15295;42.658;23.374;2023-10-09T15:24:26;9.82;;;4.13;;
27957;SDS011;15295;42.658;23.374;2023-10-09T15:26:53;9.50;;;4.32;;
27957;SDS011;15295;42.658;23.374;2023-10-09T15:29:22;18.17;;;6.40;;
27957;SDS011;15295;42.658;23.374;2023-10-09T15:31:56;9.57;;;5.22;;
27957;SDS011;15295;42.658;23.374;2023-10-09T15:37:10;7.90;;;4.40;;
27957;SDS011;15295;42.658;23.374;2023-10-09T15:39:38;10.82;;;3.40;;
27957;SDS011;15295;42.658;23.374;2023-10-09T15:42:04;7.38;;;4.00;;
27957;SDS011;15295;42.658;23.374;2023-10-09T15:44:31;10.07;;;5.10;;
27957;SDS011;15295;42.658;23.374;2023-10-09T15:47:02;11.18;;;3.72;;
27957;SDS011;15295;42.658;23.374;2023-10-09T15:49:29;10.50;;;5.80;;
27957;SDS011;15295;42.658;23.374;2023-10-09T15:52:03;10.23;;;5.38;;
27957;SDS011;15295;42.658;23.374;2023-10-09T15:54:46;12.05;;;4.72;;
27957;SDS011;15295;42.658;23.374;2023-10-09T15:57:14;16.52;;;4.47;;
27957;SDS011;15295;42.658;23.374;2023-10-09T15:59:42;17.55;;;5.03;;
27957;SDS011;15295;42.658;23.374;2023-10-09T16:02:07;13.77;;;5.22;;
27957;SDS011;15295;42.658;23.374;2023-10-09T16:04:33;11.07;;;4.40;;
27957;SDS011;15295;42.658;23.374;2023-10-09T16:06:59;8.85;;;4.45;;
27957;SDS011;15295;42.658;23.374;2023-10-09T16:09:25;18.65;;;5.88;;
27957;SDS011;15295;42.658;23.374;2023-10-09T16:11:52;13.52;;;6.15;;
27957;SDS011;15295;42.658;23.374;2023-10-09T16:14:19;15.90;;;4.80;;
27957;SDS011;15295;42.658;23.374;2023-10-09T16:16:50;16.83;;;5.25;;
27957;SDS011;15295;42.658;23.374;2023-10-09T16:19:20;20.23;;;11.80;;
27957;SDS011;15295;42.658;23.374;2023-10-09T16:21:48;20.08;;;10.68;;
27957;SDS011;15295;42.658;23.374;2023-10-09T16:24:13;17.55;;;9.95;;
27957;SDS011;15295;42.658;23.374;2023-10-09T16:26:40;21.45;;;9.48;;
27957;SDS011;15295;42.658;23.374;2023-10-09T16:29:10;22.63;;;10.55;;
27957;SDS011;15295;42.658;23.374;2023-10-09T16:31:36;17.33;;;5.45;;
27957;SDS011;15295;42.658;23.374;2023-10-09T16:34:03;15.27;;;6.72;;
27957;SDS011;15295;42.658;23.374;2023-10-09T16:36:33;12.25;;;5.22;;
27957;SDS011;15295;42.658;23.374;2023-10-09T16:39:14;13.77;;;5.60;;
27957;SDS011;15295;42.658;23.374;2023-10-09T16:41:49;12.40;;;5.13;;
27957;SDS011;15295;42.658;23.374;2023-10-09T16:44:16;10.02;;;5.30;;
27957;SDS011;15295;42.658;23.374;2023-10-09T16:46:48;19.58;;;6.78;;
27957;SDS011;15295;42.658;23.374;2023-10-09T16:49:44;26.42;;;10.18;;
27957;SDS011;15295;42.658;23.374;2023-10-09T16:52:36;27.90;;;13.75;;
27957;SDS011;15295;42.658;23.374;2023-10-09T17:00:14;26.45;;;10.90;;
27957;SDS011;15295;42.658;23.374;2023-10-09T17:03:04;26.77;;;10.80;;
27957;SDS011;15295;42.658;23.374;2023-10-09T17:05:36;28.23;;;10.20;;
27957;SDS011;15295;42.658;23.374;2023-10-09T18:20:00;15.48;;;5.45;;
27957;SDS011;15295;42.658;23.374;2023-10-09T18:22:26;16.77;;;5.57;;
27957;SDS011;15295;42.658;23.374;2023-10-09T18:24:53;16.10;;;5.22;;
27957;SDS011;15295;42.658;23.374;2023-10-09T18:32:32;13.63;;;5.25;;
27957;SDS011;15295;42.658;23.374;2023-10-09T18:35:03;15.48;;;5.03;;
27957;SDS011;15295;42.658;23.374;2023-10-09T18:43:00;13.20;;;4.72;;
27957;SDS011;15295;42.658;23.374;2023-10-09T19:11:21;15.40;;;6.18;;
27957;SDS011;15295;42.658;23.374;2023-10-09T19:14:21;14.00;;;7.28;;
27957;SDS011;15295;42.658;23.374;2023-10-09T19:20:22;12.30;;;5.60;;
27957;SDS011;15295;42.658;23.374;2023-10-09T19:41:02;23.95;;;7.53;;
27957;SDS011;15295;42.658;23.374;2023-10-09T19:43:36;17.83;;;7.35;;
27957;SDS011;15295;42.658;23.374;2023-10-09T19:48:40;15.98;;;6.88;;
27957;SDS011;15295;42.658;23.374;2023-10-09T19:51:10;15.65;;;5.82;;
27957;SDS011;15295;42.658;23.374;2023-10-09T20:11:13;12.85;;;4.90;;
27957;SDS011;15295;42.658;23.374;2023-10-09T20:24:55;11.40;;;5.32;;
27957;SDS011;15295;42.658;23.374;2023-10-09T20:27:24;18.27;;;7.27;;
27957;SDS011;15295;42.658;23.374;2023-10-09T20:32:49;17.05;;;6.32;;
27957;SDS011;15295;42.658;23.374;2023-10-09T20:40:44;15.15;;;5.90;;
27957;SDS011;15295;42.658;23.374;2023-10-09T20:43:15;14.05;;;5.80;;
27957;SDS011;15295;42.658;23.374;2023-10-09T21:28:16;11.00;;;4.68;;
27957;SDS011;15295;42.658;23.374;2023-10-09T21:30:42;16.17;;;4.82;;
27957;SDS011;15295;42.658;23.374;2023-10-09T21:46:30;12.23;;;5.22;;
27957;SDS011;15295;42.658;23.374;2023-10-09T21:49:00;15.75;;;5.07;;
27957;SDS011;15295;42.658;23.374;2023-10-09T22:02:10;15.57;;;5.47;;
27957;SDS011;15295;42.658;23.374;2023-10-09T22:07:15;12.48;;;4.82;;
27957;SDS011;15295;42.658;23.374;2023-10-09T22:12:35;13.32;;;4.85;;
27957;SDS011;15295;42.658;23.374;2023-10-09T22:15:04;11.75;;;4.65;;
27957;SDS011;15295;42.658;23.374;2023-10-09T22:17:42;10.80;;;4.22;;
27957;SDS011;15295;42.658;23.374;2023-10-09T22:22:51;11.38;;;4.40;;
27957;SDS011;15295;42.658;23.374;2023-10-09T22:25:25;16.73;;;4.90;;
27957;SDS011;15295;42.658;23.374;2023-10-09T22:28:31;10.48;;;4.35;;
27957;SDS011;15295;42.658;23.374;2023-10-09T22:42:00;9.55;;;4.10;;
27957;SDS011;15295;42.658;23.374;2023-10-09T22:44:28;8.00;;;3.88;;
27957;SDS011;15295;42.658;23.374;2023-10-09T22:47:15;11.55;;;4.32;;
27957;SDS011;15295;42.658;23.374;2023-10-09T22:50:05;11.70;;;4.43;;
27957;SDS011;15295;42.658;23.374;2023-10-09T22:53:46;11.57;;;4.35;;
27957;SDS011;15295;42.658;23.374;2023-10-09T23:13:55;9.73;;;4.32;;
27957;SDS011;15295;42.658;23.374;2023-10-09T23:22:37;16.17;;;4.35;;
27957;SDS011;15295;42.658;23.374;2023-10-09T23:25:33;9.35;;;4.10;;
27957;SDS011;15295;42.658;23.374;2023-10-09T23:30:35;9.90;;;4.10;;
27957;SDS011;15295;42.658;23.374;2023-10-09T23:54:19;14.18;;;5.05;;
27957;SDS011;15295;42.658;23.374;2023-10-09T23:56:57;15.20;;;4.82;;
27957;SDS011;15295;42.658;23.374;2023-10-09T23:59:29;16.83;;;4.65;;
